createdAt,value
2018-08-12T00:00:40.121Z,95578.83
2018-08-12T00:03:06.092Z,95579.84
2018-08-12T00:05:32.084Z,95580.42
2018-08-12T00:07:58.053Z,95579.03
2018-08-12T00:10:24.043Z,95577.65
2018-08-12T00:12:50.061Z,95574.47
2018-08-12T00:15:16.069Z,95576.84
2018-08-12T00:17:42.010Z,95583.78
2018-08-12T00:20:08.002Z,95586.95
2018-08-12T00:22:33.982Z,95571.29
2018-08-12T00:24:59.960Z,95575.45
2018-08-12T00:27:25.943Z,95583.78
2018-08-12T00:29:51.927Z,95576.64
2018-08-12T00:32:17.904Z,95580.20
2018-08-12T00:34:43.886Z,95579.41
2018-08-12T00:37:09.887Z,95570.11
2018-08-12T00:39:35.839Z,95568.72
2018-08-12T00:42:01.819Z,95573.86
2018-08-12T00:44:27.791Z,95572.87
2018-08-12T00:46:53.769Z,95575.83
2018-08-12T00:49:19.735Z,95580.00
2018-08-12T00:51:45.712Z,95578.61
2018-08-12T00:54:11.684Z,95582.37
2018-08-12T00:56:37.656Z,95576.81
2018-08-12T00:59:03.639Z,95567.68
2018-08-12T01:01:29.616Z,95570.08
2018-08-12T01:03:55.596Z,95565.92
2018-08-12T01:06:21.569Z,95573.63
2018-08-12T01:08:47.544Z,95575.23
2018-08-12T01:11:13.525Z,95575.23
2018-08-12T01:13:39.499Z,95575.41
2018-08-12T01:16:05.481Z,95573.44
2018-08-12T01:18:31.455Z,95570.66
2018-08-12T01:20:57.439Z,95566.09
2018-08-12T01:23:23.413Z,95568.47
2018-08-12T01:25:49.387Z,95568.87
2018-08-12T01:28:15.372Z,95562.91
2018-08-12T01:30:41.349Z,95556.96
2018-08-12T01:33:07.327Z,95567.66
2018-08-12T01:35:33.304Z,95562.72
2018-08-12T01:37:59.277Z,95557.94
2018-08-12T01:40:25.251Z,95562.11
2018-08-12T01:42:51.238Z,95565.90
2018-08-12T01:45:17.217Z,95564.11
2018-08-12T01:47:43.194Z,95565.49
2018-08-12T01:50:09.172Z,95566.27
2018-08-12T01:52:35.153Z,95570.64
2018-08-12T01:55:01.130Z,95568.44
2018-08-12T01:57:27.113Z,95571.05
2018-08-12T01:59:53.096Z,95573.01
2018-08-12T02:02:19.069Z,95574.22
2018-08-12T02:04:45.052Z,95570.64
2018-08-12T02:07:11.034Z,95571.63
2018-08-12T02:09:37.004Z,95573.01
2018-08-12T02:12:02.990Z,95573.99
2018-08-12T02:14:28.961Z,95573.99
2018-08-12T02:16:54.933Z,95576.36
2018-08-12T02:19:20.913Z,95582.14
2018-08-12T02:21:46.892Z,95574.39
2018-08-12T02:24:12.871Z,95577.75
2018-08-12T02:26:38.844Z,95575.59
2018-08-12T02:29:04.819Z,95579.75
2018-08-12T02:31:30.809Z,95579.75
2018-08-12T02:33:56.811Z,95577.75
2018-08-12T02:36:22.786Z,95581.14
2018-08-12T02:38:48.804Z,95583.91
2018-08-12T02:41:14.781Z,95583.51
2018-08-12T02:43:40.758Z,95582.89
2018-08-12T02:46:06.740Z,95578.94
2018-08-12T02:48:32.722Z,95581.14
2018-08-12T02:50:58.706Z,95588.66
2018-08-12T02:53:24.721Z,95588.66
2018-08-12T02:55:50.700Z,95596.40
2018-08-12T02:58:16.675Z,95598.94
2018-08-12T03:00:42.660Z,95608.25
2018-08-12T03:03:08.634Z,95608.08
2018-08-12T03:05:34.627Z,95611.43
2018-08-12T03:08:00.628Z,95614.20
2018-08-12T03:10:26.619Z,95614.20
2018-08-12T03:12:52.602Z,95614.20
2018-08-12T03:15:18.587Z,95607.84
2018-08-12T03:17:44.560Z,95609.64
2018-08-12T03:20:10.543Z,95604.70
2018-08-12T03:22:36.656Z,95608.25
2018-08-12T03:25:02.499Z,95607.07
2018-08-12T03:27:28.483Z,95604.30
2018-08-12T03:29:54.524Z,95606.09
2018-08-12T03:32:20.442Z,95611.64
2018-08-12T03:34:46.423Z,95613.02
2018-08-12T03:37:12.397Z,95614.41
2018-08-12T03:39:38.376Z,95615.39
2018-08-12T03:42:04.356Z,95629.67
2018-08-12T03:44:30.335Z,95632.45
2018-08-12T03:46:56.320Z,95634.41
2018-08-12T03:49:22.297Z,95634.01
2018-08-12T03:51:48.274Z,95630.66
2018-08-12T03:54:14.255Z,95637.77
2018-08-12T03:56:40.238Z,95640.55
2018-08-12T03:59:06.219Z,95643.72
2018-08-12T04:01:32.202Z,95646.09
2018-08-12T04:03:58.181Z,95650.46
2018-08-12T04:06:24.156Z,95649.45
2018-08-12T04:08:50.140Z,95647.86
2018-08-12T04:11:16.154Z,95644.51
2018-08-12T04:13:42.129Z,95643.29
2018-08-12T04:16:08.100Z,95648.67
2018-08-12T04:18:34.113Z,95654.63
2018-08-12T04:21:00.093Z,95659.77
2018-08-12T04:23:26.070Z,95656.99
2018-08-12T04:25:52.044Z,95654.39
2018-08-12T04:28:18.030Z,95647.86
2018-08-12T04:30:44.009Z,95651.21
2018-08-12T04:33:09.984Z,95658.95
2018-08-12T04:35:35.978Z,95662.55
2018-08-12T04:38:01.957Z,95658.95
2018-08-12T04:40:27.934Z,95662.14
2018-08-12T04:42:53.912Z,95656.19
2018-08-12T04:45:19.896Z,95658.78
2018-08-12T04:47:45.879Z,95662.72
2018-08-12T04:50:11.863Z,95660.20
2018-08-12T04:52:37.838Z,95654.84
2018-08-12T04:55:03.821Z,95662.39
2018-08-12T04:57:29.793Z,95664.99
2018-08-12T04:59:55.773Z,95666.78
2018-08-12T05:02:21.755Z,95675.89
2018-08-12T05:04:47.737Z,95671.35
2018-08-12T05:07:13.738Z,95669.16
2018-08-12T05:09:39.716Z,95673.11
2018-08-12T05:12:05.699Z,95672.13
2018-08-12T05:14:31.676Z,95666.98
2018-08-12T05:16:57.654Z,95665.02
2018-08-12T05:19:23.633Z,95669.98
2018-08-12T05:21:49.619Z,95671.37
2018-08-12T05:24:15.593Z,95674.36
2018-08-12T05:26:41.576Z,95672.56
2018-08-12T05:29:07.561Z,95673.38
2018-08-12T05:31:33.539Z,95667.62
2018-08-12T05:33:59.516Z,95668.63
2018-08-12T05:36:25.497Z,95675.94
2018-08-12T05:38:51.471Z,95668.02
2018-08-12T05:41:17.448Z,95669.41
2018-08-12T05:43:43.428Z,95667.84
2018-08-12T05:46:09.407Z,95666.63
2018-08-12T05:48:35.421Z,95663.86
2018-08-12T05:51:01.433Z,95672.02
2018-08-12T05:53:27.373Z,95672.42
2018-08-12T05:55:53.395Z,95670.83
2018-08-12T05:58:19.363Z,95674.00
2018-08-12T06:00:45.346Z,95669.84
2018-08-12T06:03:11.326Z,95674.00
2018-08-12T06:05:37.304Z,95673.02
2018-08-12T06:08:03.285Z,95670.63
2018-08-12T06:10:29.270Z,95672.82
2018-08-12T06:12:55.247Z,95670.22
2018-08-12T06:15:21.223Z,95674.38
2018-08-12T06:17:47.194Z,95673.80
2018-08-12T06:20:13.207Z,95670.83
2018-08-12T06:22:39.180Z,95667.06
2018-08-12T06:25:05.210Z,95669.27
2018-08-12T06:27:31.195Z,95665.67
2018-08-12T06:29:57.175Z,95664.92
2018-08-12T06:32:23.162Z,95671.25
2018-08-12T06:34:49.142Z,95665.70
2018-08-12T06:37:15.138Z,95662.92
2018-08-12T06:39:41.110Z,95655.00
2018-08-12T06:42:07.091Z,95662.75
2018-08-12T06:44:33.076Z,95660.38
2018-08-12T06:46:59.064Z,95659.40
2018-08-12T06:49:25.051Z,95665.94
2018-08-12T06:51:51.033Z,95659.77
2018-08-12T06:54:17.005Z,95657.00
2018-08-12T06:56:42.986Z,95664.95
2018-08-12T06:59:08.982Z,95660.78
2018-08-12T07:01:34.962Z,95664.34
2018-08-12T07:04:00.937Z,95662.38
2018-08-12T07:06:26.919Z,95661.39
2018-08-12T07:08:52.900Z,95669.89
2018-08-12T07:11:18.890Z,95667.12
2018-08-12T07:13:44.866Z,95657.61
2018-08-12T07:16:10.848Z,95662.55
2018-08-12T07:18:36.921Z,95663.56
2018-08-12T07:21:03.024Z,95668.09
2018-08-12T07:23:29.020Z,95663.73
2018-08-12T07:25:54.996Z,95662.92
2018-08-12T07:28:20.973Z,95659.17
2018-08-12T07:30:46.952Z,95667.91
2018-08-12T07:33:12.948Z,95661.37
2018-08-12T07:35:38.923Z,95652.81
2018-08-12T07:38:04.904Z,95655.59
2018-08-12T07:40:30.884Z,95650.44
2018-08-12T07:42:56.864Z,95657.78
2018-08-12T07:45:22.841Z,95652.23
2018-08-12T07:47:48.820Z,95651.42
2018-08-12T07:50:14.796Z,95654.02
2018-08-12T07:52:40.809Z,95646.68
2018-08-12T07:55:06.787Z,95654.22
2018-08-12T07:57:32.765Z,95652.84
2018-08-12T07:59:58.773Z,95646.70
2018-08-12T08:02:24.744Z,95651.27
2018-08-12T08:04:50.720Z,95647.52
2018-08-12T08:07:16.707Z,95642.55
2018-08-12T08:09:42.690Z,95644.73
2018-08-12T08:12:08.692Z,95644.91
2018-08-12T08:14:34.674Z,95648.09
2018-08-12T08:17:00.654Z,95642.95
2018-08-12T08:19:26.630Z,95643.13
2018-08-12T08:21:52.637Z,95645.90
2018-08-12T08:24:18.612Z,95649.08
2018-08-12T08:26:44.607Z,95650.27
2018-08-12T08:29:10.592Z,95650.27
2018-08-12T08:31:36.696Z,95647.66
2018-08-12T08:34:03.456Z,95643.50
2018-08-12T08:36:30.268Z,95642.11
2018-08-12T08:38:56.804Z,95646.88
2018-08-12T08:41:22.811Z,95645.09
2018-08-12T08:43:48.813Z,95635.78
2018-08-12T08:46:14.781Z,95644.11
2018-08-12T08:48:40.760Z,95645.87
2018-08-12T08:51:06.742Z,95640.72
2018-08-12T08:53:32.728Z,95642.72
2018-08-12T08:55:58.743Z,95638.56
2018-08-12T08:58:24.725Z,95639.34
2018-08-12T09:00:50.703Z,95637.17
2018-08-12T09:03:16.677Z,95640.31
2018-08-12T09:05:42.657Z,95640.52
2018-08-12T09:08:08.723Z,95635.38
2018-08-12T09:10:34.613Z,95628.44
2018-08-12T09:13:00.592Z,95628.61
2018-08-12T09:15:26.569Z,95632.20
2018-08-12T09:17:52.551Z,95622.08
2018-08-12T09:20:18.529Z,95625.26
2018-08-12T09:22:44.500Z,95620.29
2018-08-12T09:25:10.484Z,95620.46
2018-08-12T09:27:36.460Z,95616.70
2018-08-12T09:30:03.042Z,95615.31
2018-08-12T09:32:29.012Z,95616.70
2018-08-12T09:34:55.041Z,95615.12
2018-08-12T09:37:20.993Z,95608.75
2018-08-12T09:39:46.970Z,95615.69
2018-08-12T09:42:12.979Z,95613.50
2018-08-12T09:44:38.956Z,95615.69
2018-08-12T09:47:04.931Z,95612.11
2018-08-12T09:49:30.927Z,95611.73
2018-08-12T09:51:56.940Z,95611.91
2018-08-12T09:54:22.877Z,95615.09
2018-08-12T09:56:48.895Z,95612.11
2018-08-12T09:59:14.881Z,95612.52
2018-08-12T10:01:40.853Z,95606.56
2018-08-12T10:04:06.832Z,95606.97
2018-08-12T10:06:32.814Z,95601.23
2018-08-12T10:08:58.824Z,95594.70
2018-08-12T10:11:24.796Z,95600.86
2018-08-12T10:13:50.774Z,95601.67
2018-08-12T10:16:16.822Z,95601.87
2018-08-12T10:18:42.803Z,95598.92
2018-08-12T10:21:08.777Z,95593.56
2018-08-12T10:23:34.757Z,95589.23
2018-08-12T10:26:00.728Z,95594.57
2018-08-12T10:28:26.750Z,95598.56
2018-08-12T10:30:52.720Z,95595.78
2018-08-12T10:33:18.696Z,95598.76
2018-08-12T10:35:44.677Z,95582.72
2018-08-12T10:38:10.698Z,95588.67
2018-08-12T10:40:36.669Z,95587.48
2018-08-12T10:43:02.653Z,95585.28
2018-08-12T10:45:28.636Z,95584.51
2018-08-12T10:47:54.616Z,95590.06
2018-08-12T10:50:20.599Z,95583.13
2018-08-12T10:52:46.580Z,95589.85
2018-08-12T10:55:12.563Z,95584.12
2018-08-12T10:57:38.536Z,95586.67
2018-08-12T11:00:04.583Z,95583.14
2018-08-12T11:02:30.592Z,95581.98
2018-08-12T11:04:56.575Z,95585.76
2018-08-12T11:07:22.616Z,95583.99
2018-08-12T11:09:48.585Z,95581.59
2018-08-12T11:12:14.596Z,95581.02
2018-08-12T11:14:40.584Z,95574.05
2018-08-12T11:17:06.531Z,95575.02
2018-08-12T11:19:32.518Z,95576.98
2018-08-12T11:21:58.489Z,95567.50
2018-08-12T11:24:24.471Z,95568.91
2018-08-12T11:26:50.617Z,95562.72
2018-08-12T11:29:16.596Z,95566.30
2018-08-12T11:31:42.573Z,95559.94
2018-08-12T11:34:08.544Z,95567.69
2018-08-12T11:36:34.522Z,95557.37
2018-08-12T11:39:02.668Z,95557.78
2018-08-12T11:41:29.525Z,95553.79
2018-08-12T11:43:55.465Z,95551.42
2018-08-12T11:46:21.465Z,95553.00
2018-08-12T11:48:47.554Z,95549.90
2018-08-12T11:51:13.536Z,95550.09
2018-08-12T11:53:39.556Z,95548.52
2018-08-12T11:56:05.534Z,95551.29
2018-08-12T11:58:31.509Z,95544.74
2018-08-12T12:00:57.495Z,95545.76
2018-08-12T12:03:23.477Z,95543.16
2018-08-12T12:05:49.502Z,95540.38
2018-08-12T12:08:15.482Z,95539.98
2018-08-12T12:10:51.677Z,95540.78
2018-08-12T12:13:17.667Z,95540.56
2018-08-12T12:15:43.684Z,95539.17
2018-08-12T12:18:09.657Z,95537.03
2018-08-12T12:20:35.725Z,95533.47
2018-08-12T12:23:01.620Z,95533.69
2018-08-12T12:25:27.602Z,95528.91
2018-08-12T12:27:53.580Z,95529.88
2018-08-12T12:30:19.592Z,95518.58
2018-08-12T12:32:45.583Z,95526.88
2018-08-12T12:35:11.623Z,95519.34
2018-08-12T12:37:37.615Z,95513.80
2018-08-12T12:40:03.650Z,95519.72
2018-08-12T12:42:29.627Z,95518.73
2018-08-12T12:44:55.611Z,95509.78
2018-08-12T12:47:21.633Z,95512.38
2018-08-12T12:49:47.575Z,95510.41
2018-08-12T12:52:13.548Z,95507.84
2018-08-12T12:54:39.535Z,95498.52
2018-08-12T12:57:05.506Z,95492.16
2018-08-12T12:59:31.490Z,95491.56
2018-08-12T13:01:57.467Z,95492.55
2018-08-12T13:04:23.452Z,95488.97
2018-08-12T13:06:49.430Z,95480.03
2018-08-12T13:09:15.410Z,95487.75
2018-08-12T13:11:42.225Z,95481.42
2018-08-12T13:14:08.205Z,95474.66
2018-08-12T13:16:34.227Z,95480.81
2018-08-12T13:19:00.317Z,95478.65
2018-08-12T13:21:26.237Z,95481.63
2018-08-12T13:23:52.223Z,95475.88
2018-08-12T13:26:18.316Z,95467.55
2018-08-12T13:28:44.295Z,95469.94
2018-08-12T13:31:10.309Z,95470.36
2018-08-12T13:33:36.305Z,95466.78
2018-08-12T13:36:02.335Z,95468.97
2018-08-12T13:38:28.309Z,95465.59
2018-08-12T13:40:54.280Z,95462.80
2018-08-12T13:43:20.321Z,95458.65
2018-08-12T13:45:46.252Z,95459.64
2018-08-12T13:48:12.235Z,95454.27
2018-08-12T13:50:38.259Z,95454.27
2018-08-12T13:53:04.249Z,95450.11
2018-08-12T13:55:30.260Z,95459.64
2018-08-12T13:57:56.238Z,95457.05
2018-08-12T14:00:22.217Z,95453.06
2018-08-12T14:02:48.243Z,95451.67
2018-08-12T14:05:14.236Z,95450.28
2018-08-12T14:07:40.270Z,95444.73
2018-08-12T14:10:06.368Z,95452.69
2018-08-12T14:12:32.396Z,95451.67
2018-08-12T14:14:58.316Z,95451.09
2018-08-12T14:17:24.348Z,95444.55
2018-08-12T14:19:50.293Z,95445.77
2018-08-12T14:22:16.490Z,95445.96
2018-08-12T14:24:42.473Z,95443.37
2018-08-12T14:27:08.461Z,95448.56
2018-08-12T14:29:34.667Z,95452.11
2018-08-12T14:32:02.371Z,95443.37
2018-08-12T14:34:28.350Z,95442.22
2018-08-12T14:36:54.331Z,95437.66
2018-08-12T14:39:20.309Z,95443.03
2018-08-12T14:41:46.296Z,95447.39
2018-08-12T14:44:12.311Z,95442.82
2018-08-12T14:46:38.281Z,95445.02
2018-08-12T14:49:04.270Z,95436.48
2018-08-12T14:51:30.250Z,95439.66
2018-08-12T14:53:56.240Z,95437.69
2018-08-12T14:56:22.209Z,95431.33
2018-08-12T14:58:48.224Z,95437.28
2018-08-12T15:01:14.394Z,95439.48
2018-08-12T15:03:40.370Z,95435.50
2018-08-12T15:06:06.356Z,95435.09
2018-08-12T15:08:32.340Z,95437.52
2018-08-12T15:10:58.325Z,95435.74
2018-08-12T15:13:24.396Z,95435.94
2018-08-12T15:15:50.377Z,95431.37
2018-08-12T15:18:16.358Z,95434.38
2018-08-12T15:20:42.329Z,95426.04
2018-08-12T15:23:08.327Z,95427.63
2018-08-12T15:25:34.296Z,95421.09
2018-08-12T15:28:00.286Z,95422.88
2018-08-12T15:30:26.260Z,95419.92
2018-08-12T15:32:52.241Z,95421.31
2018-08-12T15:35:18.218Z,95419.92
2018-08-12T15:37:44.202Z,95420.93
2018-08-12T15:40:10.228Z,95423.32
2018-08-12T15:42:36.161Z,95415.01
2018-08-12T15:45:02.144Z,95417.40
2018-08-12T15:47:28.125Z,95418.61
2018-08-12T15:49:54.152Z,95416.41
2018-08-12T15:52:20.085Z,95412.83
2018-08-12T15:54:46.070Z,95410.28
2018-08-12T15:57:12.088Z,95415.83
2018-08-12T15:59:38.115Z,95411.86
2018-08-12T16:02:04.075Z,95411.05
2018-08-12T16:04:30.054Z,95412.04
2018-08-12T16:06:56.038Z,95409.27
2018-08-12T16:09:22.021Z,95404.91
2018-08-12T16:11:48.004Z,95407.31
2018-08-12T16:14:14.019Z,95400.78
2018-08-12T16:16:40.001Z,95401.39
2018-08-12T16:19:05.976Z,95405.20
2018-08-12T16:21:31.993Z,95403.02
2018-08-12T16:23:57.980Z,95410.14
2018-08-12T16:26:23.952Z,95401.62
2018-08-12T16:28:49.971Z,95406.18
2018-08-12T16:31:15.919Z,95404.80
2018-08-12T16:33:41.903Z,95403.00
2018-08-12T16:36:07.923Z,95401.03
2018-08-12T16:38:33.899Z,95403.58
2018-08-12T16:40:59.882Z,95408.33
2018-08-12T16:43:25.867Z,95412.72
2018-08-12T16:45:51.859Z,95406.77
2018-08-12T16:48:17.841Z,95409.73
2018-08-12T16:50:43.862Z,95412.91
2018-08-12T16:53:09.876Z,95410.75
2018-08-12T16:55:35.862Z,95414.53
2018-08-12T16:58:01.846Z,95413.14
2018-08-12T17:00:27.823Z,95416.67
2018-08-12T17:02:53.801Z,95424.41
2018-08-12T17:05:19.779Z,95422.42
2018-08-12T17:07:45.753Z,95423.59
2018-08-12T17:10:11.755Z,95428.77
2018-08-12T17:12:37.736Z,95429.14
2018-08-12T17:15:03.742Z,95427.95
2018-08-12T17:17:29.695Z,95432.51
2018-08-12T17:19:55.670Z,95430.89
2018-08-12T17:22:21.774Z,95432.11
2018-08-12T17:24:47.636Z,95437.03
2018-08-12T17:27:13.610Z,95438.80
2018-08-12T17:29:39.590Z,95433.88
2018-08-12T17:32:05.573Z,95436.05
2018-08-12T17:34:31.552Z,95433.48
2018-08-12T17:36:57.524Z,95425.71
2018-08-12T17:39:23.506Z,95433.23
2018-08-12T17:41:49.481Z,95435.81
2018-08-12T17:44:15.469Z,95435.99
2018-08-12T17:46:41.451Z,95427.87
2018-08-12T17:49:07.433Z,95432.03
2018-08-12T17:51:33.413Z,95435.80
2018-08-12T17:53:59.468Z,95436.20
2018-08-12T17:56:25.458Z,95437.36
2018-08-12T17:58:51.444Z,95436.18
2018-08-12T18:01:17.421Z,95436.58
2018-08-12T18:03:43.411Z,95438.33
2018-08-12T18:06:09.379Z,95441.72
2018-08-12T18:08:35.380Z,95443.48
2018-08-12T18:11:01.393Z,95446.84
2018-08-12T18:13:27.370Z,95444.06
2018-08-12T18:15:53.354Z,95451.81
2018-08-12T18:18:19.720Z,95452.19
2018-08-12T18:20:45.697Z,95455.37
2018-08-12T18:23:11.674Z,95456.17
2018-08-12T18:25:38.904Z,95457.59
2018-08-12T18:28:04.872Z,95455.21
2018-08-12T18:30:30.862Z,95457.59
2018-08-12T18:32:56.953Z,95461.75
2018-08-12T18:35:22.933Z,95467.50
2018-08-12T18:37:48.931Z,95468.11
2018-08-12T18:40:14.924Z,95469.50
2018-08-12T18:42:40.907Z,95465.53
2018-08-12T18:45:06.880Z,95466.11
2018-08-12T18:47:32.886Z,95465.75
2018-08-12T18:49:59.285Z,95464.39
2018-08-12T18:52:25.280Z,95469.95
2018-08-12T18:54:51.253Z,95468.73
2018-08-12T18:57:17.237Z,95474.10
2018-08-12T18:59:43.209Z,95472.30
2018-08-12T19:02:09.206Z,95474.08
2018-08-12T19:04:35.194Z,95469.91
2018-08-12T19:07:01.200Z,95470.48
2018-08-12T19:09:27.210Z,95463.72
2018-08-12T19:11:53.276Z,95460.36
2018-08-12T19:14:19.250Z,95463.52
2018-08-12T19:16:45.239Z,95458.14
2018-08-12T19:19:11.290Z,95459.92
2018-08-12T19:21:37.289Z,95459.92
2018-08-12T19:24:03.270Z,95457.74
2018-08-12T19:26:29.269Z,95457.95
2018-08-12T19:28:55.324Z,95462.29
2018-08-12T19:31:21.249Z,95463.70
2018-08-12T19:33:47.238Z,95455.37
2018-08-12T19:36:13.232Z,95455.59
2018-08-12T19:38:39.225Z,95459.13
2018-08-12T19:41:05.268Z,95451.99
2018-08-12T19:43:31.262Z,95448.02
2018-08-12T19:45:57.252Z,95451.44
2018-08-12T19:48:23.229Z,95448.25
2018-08-12T19:50:49.471Z,95453.58
2018-08-12T19:53:15.538Z,95454.59
2018-08-12T19:55:41.576Z,95454.97
2018-08-12T19:58:07.659Z,95452.80
2018-08-12T20:00:33.690Z,95453.98
2018-08-12T20:02:59.684Z,95446.05
2018-08-12T20:05:25.837Z,95449.23
2018-08-12T20:07:51.907Z,95449.66
2018-08-12T20:10:17.886Z,95447.67
2018-08-12T20:12:43.892Z,95444.48
2018-08-12T20:15:09.916Z,95448.66
2018-08-12T20:17:35.904Z,95442.70
2018-08-12T20:20:01.899Z,95445.25
2018-08-12T20:22:27.883Z,95447.84
2018-08-12T20:24:53.858Z,95444.11
2018-08-12T20:27:19.833Z,95448.05
2018-08-12T20:29:46.652Z,95446.46
2018-08-12T20:32:13.427Z,95447.45
2018-08-12T20:34:39.389Z,95448.43
2018-08-12T20:37:05.390Z,95450.63
2018-08-12T20:39:31.401Z,95447.05
2018-08-12T20:41:58.451Z,95443.28
2018-08-12T20:44:24.510Z,95442.48
2018-08-12T20:46:50.480Z,95447.27
2018-08-12T20:49:16.480Z,95445.27
2018-08-12T20:51:43.570Z,95453.42
2018-08-12T20:54:09.518Z,95448.45
2018-08-12T20:56:36.176Z,95447.46
2018-08-12T20:59:02.149Z,95450.64
2018-08-12T21:01:28.126Z,95452.20
2018-08-12T21:03:54.113Z,95451.47
2018-08-12T21:06:20.101Z,95446.88
2018-08-12T21:08:46.081Z,95448.05
2018-08-12T21:11:12.052Z,95449.06
2018-08-12T21:13:38.028Z,95448.05
2018-08-12T21:16:04.009Z,95453.40
2018-08-12T21:18:29.990Z,95452.41
2018-08-12T21:20:55.968Z,95453.00
2018-08-12T21:23:21.954Z,95454.97
2018-08-12T21:25:47.930Z,95448.23
2018-08-12T21:28:13.909Z,95456.16
2018-08-12T21:30:39.889Z,95455.35
2018-08-12T21:33:05.865Z,95455.96
2018-08-12T21:35:31.877Z,95452.95
2018-08-12T21:37:57.848Z,95448.62
2018-08-12T21:40:23.825Z,95446.83
2018-08-12T21:42:49.800Z,95450.98
2018-08-12T21:45:15.886Z,95453.95
2018-08-12T21:47:41.756Z,95447.21
2018-08-12T21:50:07.732Z,95450.97
2018-08-12T21:52:33.707Z,95447.39
2018-08-12T21:54:59.691Z,95445.19
2018-08-12T21:57:25.679Z,95448.95
2018-08-12T21:59:51.646Z,95446.17
2018-08-12T22:02:17.626Z,95446.17
2018-08-12T22:04:43.608Z,95440.63
2018-08-12T22:07:09.586Z,95443.03
2018-08-12T22:09:35.560Z,95444.41
2018-08-12T22:12:01.532Z,95441.41
2018-08-12T22:14:27.508Z,95445.00
2018-08-12T22:16:53.481Z,95441.62
2018-08-12T22:19:19.462Z,95445.78
2018-08-12T22:21:45.449Z,95440.41
2018-08-12T22:24:11.432Z,95444.40
2018-08-12T22:26:37.408Z,95446.36
2018-08-12T22:29:03.388Z,95446.55
2018-08-12T22:31:29.365Z,95439.60
2018-08-12T22:33:55.346Z,95435.64
2018-08-12T22:36:21.323Z,95439.41
2018-08-12T22:38:47.330Z,95436.63
2018-08-12T22:41:13.506Z,95438.02
2018-08-12T22:43:39.486Z,95441.38
2018-08-12T22:46:05.461Z,95441.95
2018-08-12T22:48:31.479Z,95436.41
2018-08-12T22:50:57.571Z,95440.56
2018-08-12T22:53:23.546Z,95441.58
2018-08-12T22:55:49.528Z,95439.79
2018-08-12T22:58:15.510Z,95440.77
2018-08-12T23:00:41.488Z,95441.76
2018-08-12T23:03:07.463Z,95437.59
2018-08-12T23:05:33.436Z,95443.32
2018-08-12T23:07:59.418Z,95438.98
2018-08-12T23:10:25.393Z,95444.71
2018-08-12T23:12:51.371Z,95445.72
2018-08-12T23:15:17.350Z,95439.97
2018-08-12T23:17:43.337Z,95439.77
2018-08-12T23:20:09.325Z,95445.32
2018-08-12T23:22:35.305Z,95443.53
2018-08-12T23:25:01.284Z,95443.94
2018-08-12T23:27:27.260Z,95440.75
2018-08-12T23:29:53.281Z,95438.56
2018-08-12T23:32:19.260Z,95435.20
2018-08-12T23:34:45.233Z,95437.17
2018-08-12T23:37:11.281Z,95435.20
2018-08-12T23:39:37.261Z,95437.17
2018-08-12T23:42:03.238Z,95445.50
2018-08-12T23:44:29.217Z,95440.53
2018-08-12T23:46:55.206Z,95430.81
2018-08-12T23:49:21.190Z,95434.98
2018-08-12T23:51:47.207Z,95430.44
2018-08-12T23:54:13.191Z,95423.68
2018-08-12T23:56:39.165Z,95425.88
2018-08-12T23:59:05.180Z,95430.81
